Time;durP1;ratioP1;P1;durP2;ratioP2;P2;SDS_P1;SDS_P2;PMS_P1;PMS_P2;Temp;Humidity;BMP_temperature;BMP_pressure;BME280_temperature;BME280_humidity;BME280_pressure;Samples;Min_cycle;Max_cycle;Signal;HPM_P1;HPM_P2
2021/11/02 00:01:00;;;;;;;37.50;25.13;;;281.70;2278.40;;;;;;5049047;28;20132;-79
2021/11/02 00:03:26;;;;;;;37.80;25.60;;;281.70;2278.40;;;;;;5048584;28;20035;-79
2021/11/02 00:05:51;;;;;;;36.60;24.77;;;281.70;2278.40;;;;;;5114250;28;20034;-79
2021/11/02 00:08:17;;;;;;;39.00;27.05;;;281.70;2278.40;;;;;;5132594;28;20102;-79
2021/11/02 00:10:43;;;;;;;37.97;24.42;;;281.70;2278.40;;;;;;5114527;28;20053;-78
2021/11/02 00:13:09;;;;;;;35.47;25.35;;;281.70;2278.40;;;;;;5114359;28;20019;-78
2021/11/02 00:15:37;;;;;;;34.60;26.42;;;281.70;2278.40;;;;;;5125216;28;20023;-78
2021/11/02 00:18:05;;;;;;;34.85;25.13;;;281.70;2278.40;;;;;;5105474;28;20035;-78
2021/11/02 00:20:32;;;;;;;33.35;24.77;;;281.70;2278.40;;;;;;5111002;28;20028;-79
2021/11/02 00:22:59;;;;;;;37.85;25.38;;;281.70;2278.40;;;;;;5133037;28;20031;-79
2021/11/02 00:25:29;;;;;;;37.28;24.45;;;281.70;2278.40;;;;;;5132801;28;20487;-79
2021/11/02 00:27:56;;;;;;;40.30;25.20;;;281.70;2278.40;;;;;;5126394;28;20033;-78
2021/11/02 00:30:22;;;;;;;41.45;26.77;;;281.70;2278.40;;;;;;5119411;28;20080;-79
2021/11/02 00:32:51;;;;;;;37.67;25.08;;;281.70;2278.40;;;;;;5123736;28;20059;-79
2021/11/02 00:35:18;;;;;;;37.17;25.13;;;281.70;2278.40;;;;;;5114329;28;20391;-79
2021/11/02 00:37:44;;;;;;;29.88;21.75;;;281.70;2278.40;;;;;;5123118;28;20061;-79
2021/11/02 00:40:12;;;;;;;36.45;24.10;;;281.70;2278.40;;;;;;5114134;28;20122;-78
2021/11/02 00:42:40;;;;;;;38.80;23.70;;;281.80;2278.40;;;;;;5113207;28;20514;-79
2021/11/02 00:45:12;;;;;;;39.47;27.23;;;281.70;2278.40;;;;;;5114433;28;20027;-79
2021/11/02 00:47:38;;;;;;;35.50;24.02;;;281.70;2278.40;;;;;;5125013;28;20047;-78
2021/11/02 00:50:09;;;;;;;34.08;22.23;;;281.70;2278.40;;;;;;5113630;28;20031;-77
2021/11/02 00:52:37;;;;;;;39.42;25.17;;;281.60;2278.40;;;;;;5114464;27;20118;-77
2021/11/02 00:55:05;;;;;;;32.70;23.13;;;281.60;2278.40;;;;;;5136126;27;20015;-78
2021/11/02 00:57:31;;;;;;;36.00;24.63;;;256.90;2252.80;;;;;;5118224;27;20019;-79
2021/11/02 00:59:56;;;;;;;33.65;23.50;;;256.90;2252.80;;;;;;5128860;27;20023;-79
2021/11/02 01:02:22;;;;;;;35.53;24.15;;;256.90;2252.80;;;;;;5122800;27;20048;-79
2021/11/02 01:04:48;;;;;;;35.95;24.00;;;256.90;2252.80;;;;;;5129717;27;20062;-78
2021/11/02 01:07:15;;;;;;;34.42;23.67;;;256.90;2252.80;;;;;;5127077;27;20019;-79
2021/11/02 01:09:42;;;;;;;38.10;23.30;;;256.90;2252.80;;;;;;5120085;27;20023;-78
2021/11/02 01:12:08;;;;;;;35.78;25.58;;;256.90;2252.80;;;;;;5111408;27;20023;-79
2021/11/02 01:14:34;;;;;;;32.25;22.88;;;256.90;2252.80;;;;;;5117834;27;20019;-79
2021/11/02 01:17:00;;;;;;;42.05;25.73;;;256.90;2252.80;;;;;;5130009;27;20068;-79
2021/11/02 01:19:26;;;;;;;43.50;26.95;;;256.90;2252.80;;;;;;5108309;27;20027;-79
2021/11/02 01:21:52;;;;;;;36.50;24.02;;;256.90;2252.80;;;;;;5135407;27;20027;-78
2021/11/02 01:24:18;;;;;;;35.78;23.17;;;256.80;2252.80;;;;;;5112349;27;20030;-78
2021/11/02 01:26:44;;;;;;;34.17;24.30;;;256.90;2252.80;;;;;;5135930;27;20027;-78
2021/11/02 01:29:10;;;;;;;36.63;24.15;;;256.90;2252.80;;;;;;5135880;27;20025;-78
2021/11/02 01:31:36;;;;;;;39.55;24.60;;;256.80;2252.80;;;;;;5126458;27;20034;-78
2021/11/02 01:34:02;;;;;;;33.97;24.38;;;256.80;2252.80;;;;;;5135774;27;20023;-78
2021/11/02 01:36:28;;;;;;;39.90;25.67;;;281.80;2278.40;;;;;;5108322;27;20486;-78
2021/11/02 01:38:54;;;;;;;37.05;25.17;;;256.90;2252.80;;;;;;5115662;27;20027;-78
2021/11/02 01:41:25;;;;;;;37.08;24.30;;;256.90;2252.80;;;;;;5097007;28;20027;-78
2021/11/02 01:43:52;;;;;;;40.97;26.98;;;256.90;2252.80;;;;;;5114834;28;20388;-77
2021/11/02 01:46:35;;;;;;;40.25;27.48;;;256.80;2252.80;;;;;;5096964;28;20044;-77
2021/11/02 01:49:04;;;;;;;41.60;27.90;;;256.80;2252.80;;;;;;5111315;27;20514;-77
2021/11/02 01:51:31;;;;;;;35.95;24.50;;;256.80;2252.80;;;;;;5109244;28;20054;-77
2021/11/02 01:53:57;;;;;;;38.90;25.60;;;256.80;2252.80;;;;;;5110529;27;20441;-78
2021/11/02 01:56:23;;;;;;;37.13;25.52;;;256.80;2252.80;;;;;;5135147;27;20023;-78
2021/11/02 01:58:52;;;;;;;43.67;26.08;;;256.80;2252.80;;;;;;5116585;27;20164;-78
2021/11/02 02:01:33;;;;;;;39.10;26.15;;;256.70;2252.80;;;;;;5114099;27;20030;-77
2021/11/02 02:04:28;;;;;;;40.03;26.30;;;256.70;2252.80;;;;;;5116619;27;20107;-78
2021/11/02 02:07:22;;;;;;;40.47;26.73;;;256.70;2252.80;;;;;;5028865;28;20605;-78
2021/11/02 02:09:57;;;;;;;41.95;25.58;;;256.60;2252.80;;;;;;5014585;28;20034;-77
2021/11/02 02:12:33;;;;;;;40.40;26.90;;;256.70;2252.80;;;;;;5014700;28;20044;-77
2021/11/02 02:15:08;;;;;;;;;;;256.70;2252.80;;;;;;5009060;28;20057;-78
2021/11/02 02:17:39;;;;;;;41.42;28.63;;;256.70;2252.80;;;;;;5008966;28;19913;-78
2021/11/02 02:20:11;;;;;;;36.70;24.58;;;256.80;2252.80;;;;;;5008624;28;20152;-77
2021/11/02 02:22:54;;;;;;;41.78;25.52;;;256.80;2252.80;;;;;;5031496;28;20048;-78
2021/11/02 02:25:32;;;;;;;44.03;27.50;;;256.70;2252.80;;;;;;5015080;28;20033;-78
2021/11/02 02:28:07;;;;;;;45.78;28.13;;;256.80;2252.80;;;;;;5030919;28;20032;-77
2021/11/02 02:30:38;;;;;;;41.95;25.38;;;256.80;2252.80;;;;;;5024692;28;20114;-78
2021/11/02 02:33:05;;;;;;;48.08;28.90;;;256.80;2252.80;;;;;;5024813;28;20057;-78
2021/11/02 02:35:32;;;;;;;38.83;26.98;;;256.80;2252.80;;;;;;5025158;28;20026;-78
2021/11/02 02:37:58;;;;;;;42.85;26.75;;;256.80;2252.80;;;;;;5030934;28;20058;-77
2021/11/02 02:40:24;;;;;;;39.30;26.23;;;256.90;2252.80;;;;;;5012930;28;20038;-77
2021/11/02 02:42:51;;;;;;;37.22;25.60;;;256.90;2252.80;;;;;;5022871;28;20402;-77
2021/11/02 02:45:18;;;;;;;43.78;27.55;;;256.90;2252.80;;;;;;5111922;27;20027;-77
2021/11/02 02:47:45;;;;;;;41.72;27.25;;;281.60;2278.40;;;;;;5115295;27;20055;-78
2021/11/02 02:50:13;;;;;;;44.92;27.58;;;281.60;2278.40;;;;;;5114789;27;20544;-78
2021/11/02 02:52:41;;;;;;;41.95;27.13;;;281.60;2278.40;;;;;;5095134;28;20024;-78
2021/11/02 02:55:08;;;;;;;48.08;28.45;;;281.60;2278.40;;;;;;5094951;28;20058;-78
2021/11/02 02:57:35;;;;;;;39.63;27.75;;;281.60;2278.40;;;;;;5094823;28;20061;-79
2021/11/02 03:00:03;;;;;;;39.70;26.65;;;281.70;2278.40;;;;;;5103811;27;20114;-79
2021/11/02 03:02:31;;;;;;;37.38;27.88;;;281.70;2278.40;;;;;;5134019;27;20487;-78
2021/11/02 03:05:00;;;;;;;41.08;26.02;;;281.70;2278.40;;;;;;5114827;27;20026;-79
2021/11/02 03:07:26;;;;;;;41.65;26.80;;;281.70;2278.40;;;;;;5138210;27;20011;-79
2021/11/02 03:09:52;;;;;;;39.50;25.27;;;281.80;2278.40;;;;;;5155341;27;20029;-78
2021/11/02 03:12:40;;;;;;;42.30;28.65;;;281.80;2278.40;;;;;;5112818;28;20043;-79
2021/11/02 03:18:31;;;;;;;42.13;25.23;;;282.00;2278.40;;;;;;5114158;28;20100;-80
2021/11/02 03:51:43;;;;;;;36.03;23.30;;;307.20;2304.00;;;;;;5131226;27;20111;-80
2021/11/02 03:57:15;;;;;;;40.55;24.80;;;307.30;2304.00;;;;;;5112741;28;20027;-79
2021/11/02 04:27:31;;;;;;;37.17;24.95;;;307.60;2304.00;;;;;;5124038;28;20030;-79
2021/11/02 04:35:58;;;;;;;34.03;23.02;;;307.70;2304.00;;;;;;5132393;27;20506;-78
2021/11/02 05:11:19;;;;;;;37.20;25.20;;;307.90;2304.00;;;;;;5136095;27;20033;-78
2021/11/02 05:49:21;;;;;;;39.33;25.67;;;307.50;2304.00;;;;;;5122436;27;20123;-80
2021/11/02 05:59:52;;;;;;;45.22;29.17;;;307.40;2304.00;;;;;;5125265;27;20097;-79
2021/11/02 06:29:28;;;;;;;41.55;25.83;;;282.50;2278.40;;;;;;5121878;27;20392;-77
2021/11/02 06:31:59;;;;;;;48.47;27.38;;;282.50;2278.40;;;;;;5126352;27;20056;-78
2021/11/02 06:59:43;;;;;;;45.70;25.23;;;282.40;2278.40;;;;;;4996346;28;20049;-79
2021/11/02 07:16:17;;;;;;;45.20;27.65;;;307.20;2304.00;;;;;;4995243;28;20439;-78
2021/11/02 07:18:44;;;;;;;41.08;25.55;;;307.20;2304.00;;;;;;5000912;28;20494;-79
2021/11/02 07:21:21;;;;;;;42.40;25.70;;;282.50;2278.40;;;;;;4984368;28;20038;-78
2021/11/02 07:24:04;;;;;;;41.33;26.20;;;307.20;2304.00;;;;;;5002504;28;20041;-78
2021/11/02 07:26:52;;;;;;;43.17;26.42;;;307.20;2304.00;;;;;;5040731;27;20118;-78
2021/11/02 08:45:06;;;;;;;29.13;20.90;;;308.10;2304.00;;;;;;5116693;28;20108;-76
2021/11/02 08:50:05;;;;;;;33.13;20.02;;;308.10;2304.00;;;;;;5136650;27;20562;-76
2021/11/02 08:52:33;;;;;;;28.92;19.60;;;332.80;2329.60;;;;;;5117873;27;20031;-76
2021/11/02 08:54:59;;;;;;;28.08;20.27;;;333.00;2329.60;;;;;;5136246;27;20019;-76
2021/11/02 08:57:27;;;;;;;27.65;21.02;;;332.80;2329.60;;;;;;5136019;27;20088;-76
2021/11/02 08:59:54;;;;;;;27.17;20.65;;;332.80;2329.60;;;;;;5117753;27;20018;-76
2021/11/02 09:02:34;;;;;;;27.45;19.42;;;332.90;2329.60;;;;;;5118258;27;20106;-76
2021/11/02 09:05:07;;;;;;;27.85;19.10;;;332.80;2329.60;;;;;;5131049;27;20019;-77
2021/11/02 09:07:33;;;;;;;32.47;20.65;;;332.90;2329.60;;;;;;5117881;27;20026;-76
2021/11/02 09:10:00;;;;;;;28.02;19.35;;;333.00;2329.60;;;;;;5117670;27;20122;-80
2021/11/02 09:12:33;;;;;;;29.52;20.40;;;333.00;2329.60;;;;;;5111631;27;20034;-76
2021/11/02 09:15:01;;;;;;;26.48;18.98;;;333.10;2329.60;;;;;;5107545;28;20023;-76
2021/11/02 09:17:31;;;;;;;23.13;16.98;;;333.10;2329.60;;;;;;5105508;27;20032;-77
2021/11/02 09:19:59;;;;;;;26.95;16.95;;;333.20;2329.60;;;;;;5124904;27;20029;-77
2021/11/02 09:22:25;;;;;;;24.98;17.45;;;333.20;2329.60;;;;;;5111083;27;20027;-76
2021/11/02 09:24:51;;;;;;;23.58;16.23;;;333.30;2329.60;;;;;;5117359;27;20054;-76
2021/11/02 09:27:18;;;;;;;21.35;15.90;;;333.30;2329.60;;;;;;5135498;27;20023;-76
2021/11/02 09:29:46;;;;;;;24.23;16.60;;;333.30;2329.60;;;;;;5136064;27;20023;-76
2021/11/02 09:32:12;;;;;;;23.88;16.00;;;333.30;2329.60;;;;;;5122975;27;20480;-77
2021/11/02 09:34:38;;;;;;;30.98;19.95;;;333.40;2329.60;;;;;;5115090;28;20102;-76
2021/11/02 09:37:11;;;;;;;28.30;20.05;;;333.40;2329.60;;;;;;5110768;27;20152;-76
2021/11/02 09:39:41;;;;;;;27.40;19.33;;;333.50;2329.60;;;;;;5135417;27;20015;-76
2021/11/02 09:42:15;;;;;;;32.45;20.70;;;333.50;2329.60;;;;;;5117206;27;20104;-76
2021/11/02 09:44:59;;;;;;;24.13;17.48;;;333.50;2329.60;;;;;;5116583;27;20141;-76
2021/11/02 09:47:26;;;;;;;26.35;18.10;;;333.60;2329.60;;;;;;5111519;27;20047;-76
2021/11/02 09:49:57;;;;;;;22.70;16.30;;;333.70;2329.60;;;;;;5115114;28;20027;-77
2021/11/02 09:53:04;;;;;;;20.77;16.05;;;333.70;2329.60;;;;;;5100652;27;20106;-77
2021/11/02 09:55:39;;;;;;;19.08;14.30;;;358.40;2329.60;;;;;;5110240;28;20012;-76
2021/11/02 09:58:16;;;;;;;20.88;13.18;;;358.40;2329.60;;;;;;5096830;28;20031;-77
2021/11/02 10:00:50;;;;;;;20.02;14.13;;;358.60;2329.60;;;;;;5114980;28;20021;-77
2021/11/02 10:03:29;;;;;;;18.60;13.70;;;358.50;2329.60;;;;;;5099350;28;20023;-76
2021/11/02 10:06:26;;;;;;;22.25;15.10;;;358.60;2329.60;;;;;;5115089;28;20114;-77
2021/11/02 10:08:59;;;;;;;18.23;14.20;;;358.70;2329.60;;;;;;5112856;28;20031;-77
2021/11/02 10:11:44;;;;;;;21.73;15.27;;;358.80;2329.60;;;;;;5114569;28;20031;-76
2021/11/02 10:14:32;;;;;;;20.65;15.43;;;358.70;2329.60;;;;;;5114525;28;20548;-76
2021/11/02 10:17:25;;;;;;;23.02;14.70;;;358.60;2329.60;;;;;;5096247;28;20030;-76
2021/11/02 10:20:05;;;;;;;20.77;14.63;;;358.60;2329.60;;;;;;5114476;28;20020;-76
2021/11/02 10:23:08;;;;;;;19.77;14.25;;;358.50;2329.60;;;;;;5095511;28;20507;-76
2021/11/02 10:26:11;;;;;;;21.13;13.55;;;358.40;2329.60;;;;;;5094729;28;20027;-76
2021/11/02 10:28:40;;;;;;;18.35;13.13;;;333.70;2329.60;;;;;;5126984;27;20023;-76
2021/11/02 10:31:13;;;;;;;17.73;13.85;;;333.60;2329.60;;;;;;5134657;27;20027;-76
2021/11/02 10:33:59;;;;;;;21.38;14.88;;;333.60;2329.60;;;;;;5116170;27;20080;-76
2021/11/02 10:36:35;;;;;;;20.42;14.25;;;333.60;2329.60;;;;;;5116255;27;20019;-76
2021/11/02 10:39:17;;;;;;;19.50;14.40;;;333.70;2329.60;;;;;;5112345;28;20036;-76
2021/11/02 10:41:48;;;;;;;17.85;12.70;;;333.70;2329.60;;;;;;5093096;28;20476;-76
2021/11/02 10:44:19;;;;;;;21.58;15.48;;;358.50;2329.60;;;;;;5107120;27;20487;-76
2021/11/02 10:47:09;;;;;;;19.30;13.57;;;358.70;2329.60;;;;;;5099115;28;20047;-76
2021/11/02 10:50:06;;;;;;;18.17;13.93;;;359.20;2329.60;;;;;;5104303;27;20085;-75
2021/11/02 10:52:32;;;;;;;21.50;13.07;;;384.20;2329.60;;;;;;5120682;27;20069;-76
2021/11/02 10:55:50;;;;;;;20.13;12.60;;;384.60;2329.60;;;;;;5104464;27;20031;-76
2021/11/02 10:58:36;;;;;;;;;;;384.80;2329.60;;;;;;5014350;28;20926;-76
2021/11/02 11:01:05;;;;;;;18.50;13.05;;;410.20;2355.20;;;;;;5030496;28;19909;-77
2021/11/02 11:03:31;;;;;;;18.73;13.88;;;410.50;2355.20;;;;;;5010924;28;20022;-76
2021/11/02 11:06:02;;;;;;;17.95;13.60;;;410.10;2355.20;;;;;;5030235;28;20438;-76
2021/11/02 11:08:36;;;;;;;21.95;14.80;;;409.80;2355.20;;;;;;5029586;28;20068;-76
2021/11/02 11:11:11;;;;;;;17.75;14.07;;;409.60;2355.20;;;;;;5013792;28;20421;-77
2021/11/02 11:13:38;;;;;;;20.65;15.30;;;409.80;2355.20;;;;;;5008130;28;20368;-76
2021/11/02 11:16:19;;;;;;;19.05;14.43;;;435.70;2355.20;;;;;;5030392;28;20148;-76
2021/11/02 11:19:05;;;;;;;18.42;14.43;;;435.80;2355.20;;;;;;5030121;28;20037;-77
2021/11/02 11:21:39;;;;;;;20.85;16.92;;;435.90;2355.20;;;;;;5030243;28;20033;-76
2021/11/02 11:24:33;;;;;;;20.35;15.95;;;435.30;2355.20;;;;;;5019622;28;20558;-77
2021/11/02 11:27:07;;;;;;;18.40;14.73;;;435.20;2355.20;;;;;;5029905;28;20033;-77
2021/11/02 11:29:43;;;;;;;19.25;15.50;;;435.90;2355.20;;;;;;5005968;28;20022;-77
2021/11/02 11:32:10;;;;;;;23.50;17.23;;;461.50;2380.80;;;;;;5027380;28;20033;-77
2021/11/02 11:34:42;;;;;;;20.67;15.88;;;486.60;2380.80;;;;;;5086824;27;20487;-78
2021/11/02 11:37:10;;;;;;;18.63;15.45;;;486.70;2380.80;;;;;;5111268;27;20394;-77
2021/11/02 11:39:42;;;;;;;19.77;14.90;;;487.10;2380.80;;;;;;5115903;27;20012;-78
2021/11/02 11:42:12;;;;;;;22.88;18.17;;;486.70;2380.80;;;;;;5094551;28;20024;-77
2021/11/02 11:44:49;;;;;;;18.67;14.23;;;512.10;2380.80;;;;;;5116522;28;20035;-78
2021/11/02 11:47:23;;;;;;;20.55;16.38;;;512.20;2380.80;;;;;;5104442;27;20135;-78
2021/11/02 11:49:49;;;;;;;19.63;15.02;;;512.70;2380.80;;;;;;5107776;27;20557;-78
2021/11/02 11:52:21;;;;;;;19.20;14.75;;;537.70;2406.40;;;;;;5123071;27;20050;-78
2021/11/02 11:54:56;;;;;;;21.83;15.75;;;512.90;2380.80;;;;;;5101465;28;20096;-79
2021/11/02 11:57:33;;;;;;;18.02;14.85;;;512.60;2380.80;;;;;;5112565;27;20019;-78
2021/11/02 12:00:07;;;;;;;20.80;15.60;;;537.80;2406.40;;;;;;5103029;28;20020;-77
2021/11/02 12:02:53;;;;;;;20.23;15.43;;;537.90;2406.40;;;;;;5106395;28;20034;-78
2021/11/02 12:05:22;;;;;;;21.10;14.90;;;563.20;2432.00;;;;;;5105960;28;20050;-79
2021/11/02 12:08:15;;;;;;;16.95;14.15;;;538.20;2406.40;;;;;;5123670;28;20019;-76
2021/11/02 12:10:43;;;;;;;20.75;15.15;;;538.10;2406.40;;;;;;5131426;28;20386;-78
2021/11/02 12:13:11;;;;;;;18.83;13.52;;;538.50;2406.40;;;;;;5100133;28;20065;-78
2021/11/02 12:15:58;;;;;;;18.83;14.60;;;538.20;2406.40;;;;;;5094037;28;20016;-77
2021/11/02 12:18:27;;;;;;;18.92;14.43;;;538.40;2406.40;;;;;;5110876;28;20402;-77
2021/11/02 12:20:54;;;;;;;16.90;14.13;;;538.20;2406.40;;;;;;5114098;28;20027;-77
2021/11/02 12:23:41;;;;;;;16.80;12.63;;;538.30;2406.40;;;;;;5132373;28;20081;-77
2021/11/02 12:26:09;;;;;;;20.52;14.60;;;563.20;2432.00;;;;;;5132974;28;20022;-77
2021/11/02 12:28:41;;;;;;;17.08;14.35;;;563.20;2432.00;;;;;;5125984;28;20095;-77
2021/11/02 12:31:18;;;;;;;18.75;14.23;;;563.50;2432.00;;;;;;5125949;28;20015;-77
2021/11/02 12:33:49;;;;;;;19.83;14.23;;;538.40;2406.40;;;;;;5138736;28;20106;-77
2021/11/02 12:36:20;;;;;;;18.23;13.95;;;538.20;2406.40;;;;;;5105341;28;20516;-77
2021/11/02 12:38:45;;;;;;;17.52;14.00;;;512.80;2380.80;;;;;;5131459;28;20027;-77
2021/11/02 12:41:17;;;;;;;19.42;14.13;;;512.70;2380.80;;;;;;5127000;28;20020;-77
2021/11/02 12:43:47;;;;;;;17.73;13.98;;;512.90;2380.80;;;;;;5104462;28;20023;-78
2021/11/02 12:46:13;;;;;;;21.08;15.82;;;537.70;2406.40;;;;;;5114696;28;20031;-77
2021/11/02 12:48:40;;;;;;;17.52;15.48;;;538.10;2406.40;;;;;;5132414;27;20055;-76
2021/11/02 12:51:09;;;;;;;19.38;15.75;;;537.70;2406.40;;;;;;5118434;27;20521;-77
2021/11/02 12:53:37;;;;;;;22.02;15.40;;;512.80;2380.80;;;;;;5117953;27;20132;-77
2021/11/02 12:56:16;;;;;;;19.75;14.63;;;537.90;2406.40;;;;;;5108894;27;20026;-77
2021/11/02 12:58:46;;;;;;;19.88;14.70;;;512.90;2380.80;;;;;;5103368;28;20035;-77
2021/11/02 13:01:12;;;;;;;20.27;14.07;;;538.20;2406.40;;;;;;5097254;28;20059;-77
2021/11/02 13:03:43;;;;;;;17.58;13.98;;;538.40;2406.40;;;;;;5123219;27;20027;-77
2021/11/02 13:06:10;;;;;;;20.60;16.77;;;512.70;2380.80;;;;;;5110944;27;20047;-77
2021/11/02 13:08:54;;;;;;;23.50;16.23;;;512.00;2380.80;;;;;;5112445;27;20024;-77
2021/11/02 13:11:25;;;;;;;24.23;16.30;;;486.90;2380.80;;;;;;5118824;27;20027;-77
2021/11/02 13:14:10;;;;;;;25.58;17.05;;;486.70;2380.80;;;;;;5107337;27;20026;-76
2021/11/02 13:16:54;;;;;;;17.75;15.10;;;486.40;2380.80;;;;;;5127631;27;20033;-76
2021/11/02 13:19:23;;;;;;;22.50;16.85;;;461.40;2380.80;;;;;;5106333;27;20494;-76
2021/11/02 13:21:49;;;;;;;20.30;15.45;;;461.40;2380.80;;;;;;5106557;27;20023;-76
2021/11/02 13:24:18;;;;;;;21.85;16.80;;;461.30;2380.80;;;;;;5106608;27;20376;-76
2021/11/02 13:26:49;;;;;;;22.15;16.55;;;461.30;2380.80;;;;;;5110778;27;20110;-76
2021/11/02 13:29:16;;;;;;;22.17;18.02;;;461.20;2380.80;;;;;;5108829;27;20025;-76
2021/11/02 13:31:43;;;;;;;21.10;16.30;;;460.80;2380.80;;;;;;5129923;27;20023;-76
2021/11/02 13:34:39;;;;;;;27.23;18.58;;;436.10;2355.20;;;;;;5107083;27;20456;-77
2021/11/02 13:37:11;;;;;;;25.17;19.00;;;436.00;2355.20;;;;;;5040329;28;20048;-77
2021/11/02 13:39:57;;;;;;;29.58;21.02;;;435.70;2355.20;;;;;;5039370;28;20021;-77
2021/11/02 13:42:49;;;;;;;40.80;22.98;;;435.60;2355.20;;;;;;5040476;28;20046;-77
2021/11/02 13:45:19;;;;;;;51.70;28.60;;;435.50;2355.20;;;;;;4991018;28;20037;-76
2021/11/02 13:47:45;;;;;;;35.88;25.50;;;435.90;2355.20;;;;;;4988398;28;20049;-76
2021/11/02 13:50:12;;;;;;;26.33;19.52;;;461.10;2380.80;;;;;;5003974;28;20073;-78
2021/11/02 13:52:40;;;;;;;25.42;19.30;;;461.20;2380.80;;;;;;5002700;28;20034;-76
2021/11/02 13:55:07;;;;;;;21.10;17.33;;;461.20;2380.80;;;;;;4989294;28;20038;-76
2021/11/02 13:57:33;;;;;;;14.32;10.48;;;461.20;2380.80;;;;;;5005222;28;20058;-77
2021/11/02 13:59:58;;;;;;;17.23;12.88;;;460.80;2380.80;;;;;;4992263;28;20143;-75
2021/11/02 14:02:25;;;;;;;16.35;13.05;;;435.90;2355.20;;;;;;4986765;28;20045;-76
2021/11/02 14:04:51;;;;;;;15.95;13.00;;;435.50;2355.20;;;;;;4986146;28;20029;-76
2021/11/02 14:07:26;;;;;;;18.58;15.98;;;435.50;2355.20;;;;;;5001805;28;20045;-76
2021/11/02 14:09:57;;;;;;;20.40;16.50;;;435.40;2355.20;;;;;;4989415;28;20049;-76
2021/11/02 14:12:29;;;;;;;22.10;15.55;;;435.70;2355.20;;;;;;4999051;28;20422;-76
2021/11/02 14:15:10;;;;;;;24.20;15.40;;;435.90;2355.20;;;;;;5046931;28;20036;-76
2021/11/02 14:17:49;;;;;;;19.92;16.00;;;461.00;2380.80;;;;;;5042887;28;20428;-76
2021/11/02 14:20:36;;;;;;;20.92;16.00;;;461.30;2380.80;;;;;;5062088;28;20144;-77
2021/11/02 14:23:03;;;;;;;21.23;16.60;;;461.50;2380.80;;;;;;5094447;27;20035;-76
2021/11/02 14:25:41;;;;;;;23.13;18.50;;;461.40;2380.80;;;;;;5126435;27;20039;-76
2021/11/02 14:28:08;;;;;;;22.50;17.33;;;461.20;2380.80;;;;;;5101968;27;20571;-76
2021/11/02 14:30:42;;;;;;;19.92;15.02;;;436.10;2355.20;;;;;;5125291;27;20027;-77
2021/11/02 14:33:10;;;;;;;23.60;17.48;;;435.90;2355.20;;;;;;5105009;27;20887;-76
2021/11/02 14:35:49;;;;;;;17.80;15.18;;;435.80;2355.20;;;;;;5105518;27;20027;-77
2021/11/02 14:38:21;;;;;;;26.33;18.55;;;435.50;2355.20;;;;;;5123854;27;20015;-76
2021/11/02 14:41:29;;;;;;;29.75;19.45;;;435.30;2355.20;;;;;;5106026;27;20482;-76
2021/11/02 14:44:14;;;;;;;27.92;21.67;;;435.20;2355.20;;;;;;5114142;27;20023;-76
2021/11/02 14:46:44;;;;;;;29.02;21.45;;;410.50;2355.20;;;;;;5122803;27;20035;-76
2021/11/02 14:49:30;;;;;;;28.67;19.85;;;410.40;2355.20;;;;;;5106703;27;20135;-76
2021/11/02 14:52:01;;;;;;;30.17;21.47;;;410.20;2355.20;;;;;;5122995;27;20028;-77
2021/11/02 14:54:30;;;;;;;33.53;23.33;;;410.10;2355.20;;;;;;5127033;27;20259;-77
2021/11/02 14:57:16;;;;;;;42.42;26.08;;;410.10;2355.20;;;;;;5110435;27;20076;-76
2021/11/02 14:59:58;;;;;;;34.55;24.00;;;410.10;2355.20;;;;;;5105698;27;20131;-76
2021/11/02 15:02:35;;;;;;;36.38;25.85;;;410.00;2355.20;;;;;;5120134;27;20028;-77
2021/11/02 15:05:05;;;;;;;39.78;24.08;;;409.80;2355.20;;;;;;5107868;27;20029;-78
2021/11/02 15:07:33;;;;;;;49.15;34.65;;;409.70;2355.20;;;;;;5100657;27;20030;-79
2021/11/02 15:10:07;;;;;;;31.88;21.73;;;409.70;2355.20;;;;;;5107263;28;20422;-77
2021/11/02 15:12:32;;;;;;;38.03;23.02;;;409.60;2355.20;;;;;;5110948;28;20027;-74
2021/11/02 15:15:00;;;;;;;28.73;21.08;;;384.80;2329.60;;;;;;5126246;27;20046;-74
2021/11/02 15:17:26;;;;;;;26.50;19.70;;;384.70;2329.60;;;;;;5126475;27;20030;-75
2021/11/02 15:19:53;;;;;;;27.25;21.60;;;384.70;2329.60;;;;;;5126731;27;20023;-75
2021/11/02 15:22:20;;;;;;;31.90;22.90;;;384.60;2329.60;;;;;;5105400;27;20119;-74
2021/11/02 15:24:53;;;;;;;29.10;21.27;;;384.50;2329.60;;;;;;5121289;27;20027;-75
2021/11/02 15:27:22;;;;;;;23.92;17.60;;;384.50;2329.60;;;;;;5105873;27;20031;-75
2021/11/02 15:29:53;;;;;;;26.40;20.10;;;384.30;2329.60;;;;;;5123781;27;20027;-75
2021/11/02 15:32:25;;;;;;;25.48;18.92;;;384.30;2329.60;;;;;;5107082;27;20166;-74
2021/11/02 15:34:52;;;;;;;23.77;17.52;;;384.20;2329.60;;;;;;5112400;27;20076;-74
2021/11/02 15:37:42;;;;;;;30.02;19.17;;;384.20;2329.60;;;;;;5132954;27;20015;-75
2021/11/02 15:40:10;;;;;;;24.10;18.50;;;384.20;2329.60;;;;;;5112723;27;20015;-74
2021/11/02 15:42:56;;;;;;;26.90;18.35;;;384.20;2329.60;;;;;;5107182;28;20058;-75
2021/11/02 15:45:33;;;;;;;29.63;21.40;;;384.20;2329.60;;;;;;5096885;28;20035;-76
2021/11/02 15:48:07;;;;;;;28.38;21.27;;;384.10;2329.60;;;;;;5125269;27;20423;-75
2021/11/02 15:50:34;;;;;;;27.20;21.45;;;384.10;2329.60;;;;;;5125534;27;20027;-74
2021/11/02 15:53:06;;;;;;;37.20;26.63;;;384.10;2329.60;;;;;;5102460;28;20079;-76
2021/11/02 15:55:32;;;;;;;46.40;28.55;;;384.00;2329.60;;;;;;5108792;27;20019;-76
2021/11/02 15:58:02;;;;;;;48.08;30.55;;;359.30;2329.60;;;;;;5102045;27;20054;-76
2021/11/02 16:00:33;;;;;;;38.05;27.23;;;359.20;2329.60;;;;;;5122635;27;20671;-76
2021/11/02 16:02:59;;;;;;;35.50;25.75;;;359.10;2329.60;;;;;;5098781;28;20032;-76
2021/11/02 16:05:26;;;;;;;29.40;23.02;;;359.00;2329.60;;;;;;5114041;28;20027;-76
2021/11/02 16:07:57;;;;;;;34.13;25.73;;;358.80;2329.60;;;;;;5096844;28;20016;-76
2021/11/02 16:10:28;;;;;;;32.17;24.85;;;358.70;2329.60;;;;;;5126238;28;20027;-76
2021/11/02 16:12:55;;;;;;;33.10;24.48;;;358.50;2329.60;;;;;;5100785;28;20027;-76
2021/11/02 16:15:33;;;;;;;39.22;27.05;;;358.40;2329.60;;;;;;5118695;28;20019;-75
2021/11/02 16:18:02;;;;;;;32.35;25.23;;;333.70;2329.60;;;;;;5105264;28;20029;-75
2021/11/02 16:20:30;;;;;;;31.02;25.02;;;333.70;2329.60;;;;;;5098493;28;20038;-76
2021/11/02 16:23:01;;;;;;;35.63;26.13;;;333.60;2329.60;;;;;;5102960;28;20131;-77
2021/11/02 16:25:33;;;;;;;31.50;24.60;;;333.40;2329.60;;;;;;5107489;28;20031;-76
2021/11/02 16:28:04;;;;;;;31.38;24.33;;;333.40;2329.60;;;;;;5124113;27;20027;-75
2021/11/02 16:30:40;;;;;;;37.83;27.15;;;333.20;2329.60;;;;;;5115029;27;20035;-76
2021/11/02 16:33:06;;;;;;;41.00;26.27;;;333.20;2329.60;;;;;;5130288;27;20811;-75
2021/11/02 16:35:37;;;;;;;38.83;27.35;;;333.00;2329.60;;;;;;5124505;27;20023;-75
2021/11/02 16:38:24;;;;;;;40.45;29.55;;;332.80;2329.60;;;;;;5129477;27;20011;-78
2021/11/02 16:40:54;;;;;;;41.85;29.63;;;332.80;2329.60;;;;;;5111234;27;20379;-78
2021/11/02 16:43:26;;;;;;;43.92;31.63;;;332.80;2329.60;;;;;;5122537;27;20571;-77
2021/11/02 16:45:53;;;;;;;44.63;32.78;;;332.90;2329.60;;;;;;5111211;27;20062;-78
2021/11/02 16:48:18;;;;;;;42.50;27.75;;;332.90;2329.60;;;;;;5111025;27;20047;-78
2021/11/02 16:50:53;;;;;;;36.92;27.30;;;332.90;2329.60;;;;;;5131584;27;20031;-78
2021/11/02 16:53:24;;;;;;;35.75;26.42;;;332.90;2329.60;;;;;;5108492;27;20174;-77
2021/11/02 16:55:51;;;;;;;38.55;26.10;;;333.00;2329.60;;;;;;5123553;27;20132;-78
2021/11/02 16:58:20;;;;;;;30.20;23.05;;;332.90;2329.60;;;;;;5111814;27;20023;-77
2021/11/02 17:00:47;;;;;;;25.83;20.80;;;332.90;2329.60;;;;;;5104804;27;20559;-77
2021/11/02 17:03:15;;;;;;;32.05;23.25;;;333.00;2329.60;;;;;;5127428;27;20031;-76
2021/11/02 17:05:44;;;;;;;31.90;24.35;;;333.00;2329.60;;;;;;5109752;27;20546;-79
2021/11/02 17:08:12;;;;;;;33.22;24.77;;;333.00;2329.60;;;;;;5109054;28;20035;-78
2021/11/02 17:10:58;;;;;;;34.53;24.95;;;333.00;2329.60;;;;;;5130279;27;20080;-80
2021/11/02 17:13:34;;;;;;;30.23;23.50;;;333.00;2329.60;;;;;;5125983;27;20046;-81
2021/11/02 17:16:03;;;;;;;;;;;333.00;2329.60;;;;;;5112850;27;20076;-80
2021/11/02 17:18:54;;;;;;;41.70;31.00;;;333.00;2329.60;;;;;;5119372;27;19911;-81